Temp: 16.3°C   Hum: 75%
  Wind: 2.0mph   Dir: SW (214°)
  Rain: 0.6mm Rate: 0.0mm/hr
  Pressure: 1017.6mb

Historic data

Bath Spa Weather Station Historical Data
Daily Summary for May 23, 2022 Units:  Metric    English   Both
Daily Weekly Monthly Yearly Custom
  High: Low: Average:
Temperature: 15.3 °C 9.3 °C 13.1 °C
Dew Point: 11.4 °C 7.4 °C 9.8 °C
Humidity: 93% 68.4% 81%
Wind Speed: 17.2km/h 0km/h 7.4km/h
Wind Gust: 25.7km/h - -
Wind- - WNW
Pressure: 1008 hPa 1001.9 hPa -
Precipitation: 8.89 mm    
Historical Graphs
 
 
Tabular Data for May 23, 2022
Time Temperature Dew Point Pressure Wind Wind Speed Wind Gust Humidity Rainfall Rate (Hourly) solar
00:09 13.8 °C 10.3 °C 1008 hPa WNW 4.7 km/h 8 km/h 79.8% 0 mm 0 W/m2
00:14 13.8 °C 10.4 °C 1008 hPa WNW 4.7 km/h 6.4 km/h 80% 0 mm 0 W/m2
00:19 13.8 °C 10.4 °C 1008 hPa WNW 6 km/h 8 km/h 80% 0 mm 0 W/m2
00:24 13.8 °C 10.5 °C 1008 hPa WNW 4.7 km/h 8 km/h 80.8% 0 mm 0 W/m2
00:29 13.7 °C 10.5 °C 1008 hPa WNW 3.9 km/h 8 km/h 81% 0 mm 0 W/m2
00:34 13.7 °C 10.5 °C 1007.7 hPa WNW 4 km/h 8 km/h 81% 0 mm 0 W/m2
00:39 13.7 °C 10.7 °C 1007.7 hPa WNW 2.7 km/h 6.4 km/h 82% 0 mm 0 W/m2
00:44 13.7 °C 10.7 °C 1007.7 hPa WNW 3.2 km/h 4.8 km/h 82% 0 mm 0 W/m2
00:49 13.6 °C 10.7 °C 1007.7 hPa WNW 1.9 km/h 6.4 km/h 82.2% 0 mm 0 W/m2
00:54 13.6 °C 10.8 °C 1007.7 hPa WNW 5.3 km/h 9.7 km/h 83% 0 mm 0 W/m2
00:59 13.6 °C 10.8 °C 1007.3 hPa WNW 5.1 km/h 8 km/h 83% 0 mm 0 W/m2
01:04 13.6 °C 10.8 °C 1007.7 hPa WNW 4.7 km/h 8 km/h 83% 0 mm 0 W/m2
01:09 13.6 °C 10.8 °C 1007.3 hPa WNW 4.8 km/h 8 km/h 83.8% 0 mm 0 W/m2
01:14 13.5 °C 10.8 °C 1007.3 hPa WNW 2.9 km/h 8 km/h 84% 0 mm 0 W/m2
01:19 13.5 °C 10.8 °C 1007.3 hPa WNW 3.9 km/h 6.4 km/h 84% 0 mm 0 W/m2
01:24 13.5 °C 10.8 °C 1007.3 hPa WNW 4.5 km/h 6.4 km/h 84% 0 mm 0 W/m2
01:29 13.5 °C 10.8 °C 1007.3 hPa WNW 3.4 km/h 6.4 km/h 84% 0 mm 0 W/m2
01:34 13.5 °C 10.8 °C 1007.3 hPa WNW 2.1 km/h 6.4 km/h 84% 0 mm 0 W/m2
01:39 13.4 °C 10.8 °C 1007.3 hPa WNW 2.6 km/h 6.4 km/h 84% 0 mm 0 W/m2
01:44 13.4 °C 10.8 °C 1007 hPa WNW 2.6 km/h 6.4 km/h 84.6% 0 mm 0 W/m2
01:49 13.4 °C 10.9 °C 1007 hPa WNW 3.4 km/h 6.4 km/h 85% 0 mm 0 W/m2
01:54 13.4 °C 10.9 °C 1007 hPa WNW 3.9 km/h 8 km/h 85% 0 mm 0 W/m2
01:59 13.4 °C 10.9 °C 1006.7 hPa West 5.3 km/h 9.7 km/h 85% 0 mm 0 W/m2
02:03 13.4 °C 10.9 °C 1007 hPa West 4 km/h 12.9 km/h 85% 0 mm 0 W/m2
02:09 13.5 °C 11.1 °C 1007 hPa West 6.1 km/h 12.9 km/h 85.6% 0 mm 0 W/m2
02:14 13.4 °C 11.2 °C 1006.7 hPa West 5.3 km/h 9.7 km/h 86% 0 mm 0 W/m2
02:19 13.3 °C 11.1 °C 1006.7 hPa West 5.6 km/h 9.7 km/h 86% 0 mm 0 W/m2
02:24 13.3 °C 11.2 °C 1006.7 hPa West 4.8 km/h 9.7 km/h 87% 0 mm 0 W/m2
02:29 13.2 °C 11.2 °C 1006.7 hPa West 4 km/h 9.7 km/h 87.2% 0 mm 0 W/m2
02:34 13.2 °C 11.3 °C 1006.7 hPa West 5.1 km/h 9.7 km/h 88% 0 mm 0 W/m2
02:39 13.1 °C 11.2 °C 1006.3 hPa West 5.3 km/h 8 km/h 88.2% 0 mm 0 W/m2
02:44 13.1 °C 11.3 °C 1006.7 hPa West 5.3 km/h 9.7 km/h 89% 0 mm 0 W/m2
02:49 13.1 °C 11.3 °C 1006.7 hPa West 6.3 km/h 11.3 km/h 89% 0 mm 0 W/m2
02:54 13.1 °C 11.3 °C 1006.7 hPa WNW 5.8 km/h 11.3 km/h 89% 0 mm 0 W/m2
02:59 13.1 °C 11.3 °C 1006.7 hPa WNW 6.9 km/h 9.7 km/h 89.2% 0 mm 0 W/m2
03:04 13 °C 11.4 °C 1006.7 hPa WNW 4 km/h 8 km/h 90% 0 mm 0 W/m2
03:09 12.9 °C 11.3 °C 1006.3 hPa WNW 6.4 km/h 11.3 km/h 90% 0 mm 0 W/m2
03:14 12.9 °C 11.3 °C 1006.3 hPa WNW 7.1 km/h 11.3 km/h 90% 0 mm 0 W/m2
03:19 12.9 °C 11.3 °C 1006.3 hPa WNW 3.2 km/h 8 km/h 90% 0 mm 0 W/m2
03:24 12.8 °C 11.2 °C 1006.3 hPa WNW 6.1 km/h 9.7 km/h 90% 0 mm 0 W/m2
03:29 12.8 °C 11.2 °C 1006.3 hPa WNW 6 km/h 9.7 km/h 90% 0 mm 0 W/m2
03:34 12.7 °C 11.1 °C 1006.3 hPa WNW 4.2 km/h 8 km/h 90% 0 mm 0 W/m2
03:39 12.7 °C 11.1 °C 1006.3 hPa WNW 3.1 km/h 6.4 km/h 90% 0 mm 0 W/m2
03:44 12.7 °C 11.1 °C 1006.3 hPa West 5.1 km/h 8 km/h 90% 0 mm 0 W/m2
03:49 12.7 °C 11.1 °C 1006 hPa West 4 km/h 8 km/h 90% 0 mm 0 W/m2
03:54 12.7 °C 11.1 °C 1006 hPa WNW 4.3 km/h 9.7 km/h 90% 0 mm 0 W/m2
03:58 12.7 °C 11.1 °C 1006 hPa NW 2.4 km/h 8 km/h 90% 0 mm 0 W/m2
04:04 12.7 °C 11.1 °C 1006 hPa WNW 5.3 km/h 9.7 km/h 90% 0 mm 0 W/m2
04:09 12.6 °C 11 °C 1006 hPa WNW 4.8 km/h 9.7 km/h 90% 0 mm 0 W/m2
04:14 12.6 °C 11 °C 1005.6 hPa WNW 5.6 km/h 9.7 km/h 90% 0 mm 0 W/m2
04:19 12.6 °C 11 °C 1005.6 hPa West 6 km/h 9.7 km/h 90% 0 mm 0 W/m2
04:24 12.6 °C 11 °C 1005.6 hPa West 7.2 km/h 12.9 km/h 90% 0 mm 0 W/m2
04:29 12.5 °C 10.9 °C 1005.6 hPa West 4.5 km/h 12.9 km/h 90% 0 mm 0 W/m2
04:34 12.5 °C 10.9 °C 1005.6 hPa West 6.1 km/h 11.3 km/h 90% 0 mm 0 W/m2
04:39 12.5 °C 10.9 °C 1005.6 hPa WNW 5.5 km/h 9.7 km/h 90% 0 mm 0 W/m2
04:44 12.4 °C 10.8 °C 1005.6 hPa West 6 km/h 9.7 km/h 90% 0 mm 0 W/m2
04:49 12.4 °C 10.8 °C 1005.6 hPa West 4 km/h 9.7 km/h 90% 0 mm 0 W/m2
04:54 12.4 °C 10.8 °C 1005.6 hPa West 5.3 km/h 9.7 km/h 90% 0 mm 0 W/m2
04:59 12.4 °C 10.8 °C 1005.6 hPa West 4 km/h 8 km/h 90% 0 mm 0 W/m2
05:04 12.4 °C 10.8 °C 1005.6 hPa West 3.7 km/h 9.7 km/h 90% 0 mm 0 W/m2
05:09 12.4 °C 10.7 °C 1005.6 hPa West 4.5 km/h 9.7 km/h 89.8% 0 mm 0 W/m2
05:14 12.4 °C 10.6 °C 1005.6 hPa West 4.7 km/h 9.7 km/h 89% 0 mm 0 W/m2
05:19 12.4 °C 10.6 °C 1005.6 hPa West 4 km/h 9.7 km/h 89.2% 0 mm 0 W/m2
05:23 12.4 °C 10.6 °C 1005.6 hPa West 2.7 km/h 6.4 km/h 89% 0 mm 5 W/m2
05:29 12.3 °C 10.5 °C 1005.3 hPa West 3.2 km/h 8 km/h 89% 0 mm 9 W/m2
05:34 12.3 °C 10.5 °C 1005.3 hPa West 3.5 km/h 6.4 km/h 89% 0 mm 9 W/m2
05:39 12.3 °C 10.5 °C 1005.3 hPa West 4.2 km/h 9.7 km/h 89% 0 mm 9 W/m2
05:44 12.3 °C 10.5 °C 1005.3 hPa West 5.8 km/h 8 km/h 89% 0 mm 11 W/m2
05:49 12.3 °C 10.5 °C 1005.3 hPa West 4.5 km/h 8 km/h 89% 0 mm 12 W/m2
05:54 12.3 °C 10.5 °C 1005.3 hPa West 6.8 km/h 9.7 km/h 89% 0 mm 12 W/m2
05:59 12.3 °C 10.4 °C 1005.3 hPa West 4.3 km/h 8 km/h 89% 0 mm 18 W/m2
06:04 12.3 °C 10.4 °C 1005.3 hPa West 5.8 km/h 9.7 km/h 89% 0 mm 25 W/m2
06:09 12.2 °C 10.4 °C 1005.3 hPa West 5.1 km/h 11.3 km/h 89% 0 mm 32 W/m2
06:14 12.3 °C 10.5 °C 1005 hPa West 4.5 km/h 9.7 km/h 89% 0 mm 35 W/m2
06:19 12.2 °C 10.4 °C 1005 hPa West 5.8 km/h 9.7 km/h 89% 0 mm 39 W/m2
06:24 12.2 °C 10.4 °C 1005 hPa West 7.2 km/h 11.3 km/h 89% 0 mm 46 W/m2
06:29 12.2 °C 10.4 °C 1005 hPa West 6.1 km/h 9.7 km/h 88.6% 0 mm 53 W/m2
06:34 12.3 °C 10.4 °C 1005 hPa West 6 km/h 11.3 km/h 88% 0 mm 56 W/m2
06:39 12.3 °C 10.4 °C 1005 hPa West 7.2 km/h 12.9 km/h 88% 0 mm 54 W/m2
06:44 12.3 °C 10.4 °C 1005 hPa West 5.1 km/h 12.9 km/h 88% 0 mm 69 W/m2
06:49 12.3 °C 10.4 °C 1005 hPa West 5.1 km/h 9.7 km/h 88% 0 mm 84 W/m2
06:54 12.3 °C 10.4 °C 1004.6 hPa West 5.1 km/h 8 km/h 88% 0 mm 95 W/m2
06:59 12.3 °C 10.4 °C 1004.6 hPa West 3.4 km/h 8 km/h 88% 0 mm 109 W/m2
07:04 12.4 °C 10.5 °C 1004.6 hPa West 7.6 km/h 11.3 km/h 88% 0 mm 116 W/m2
07:09 12.4 °C 10.4 °C 1004.6 hPa West 6.3 km/h 11.3 km/h 87.6% 0 mm 113 W/m2
07:14 12.4 °C 10.4 °C 1004.6 hPa West 6 km/h 9.7 km/h 87.4% 0 mm 130 W/m2
07:19 12.5 °C 10.4 °C 1004.6 hPa WNW 5.3 km/h 12.9 km/h 87% 0 mm 178 W/m2
07:24 12.6 °C 10.5 °C 1004.6 hPa West 8.4 km/h 14.5 km/h 87% 0 mm 195 W/m2
07:29 12.7 °C 10.6 °C 1004.6 hPa WNW 6.8 km/h 12.9 km/h 87% 0 mm 243 W/m2
07:34 12.7 °C 10.6 °C 1004.6 hPa WNW 5.8 km/h 12.9 km/h 87% 0 mm 156 W/m2
07:39 12.8 °C 10.6 °C 1004.6 hPa WNW 6.4 km/h 11.3 km/h 86.3% 0 mm 146 W/m2
07:44 12.8 °C 10.5 °C 1004.6 hPa WNW 5.8 km/h 12.9 km/h 86% 0 mm 160 W/m2
07:49 12.8 °C 10.4 °C 1004.6 hPa WNW 7.1 km/h 14.5 km/h 85.4% 0 mm 190 W/m2
07:54 12.9 °C 10.4 °C 1004.3 hPa WNW 6.8 km/h 14.5 km/h 85% 0 mm 265 W/m2
07:59 13 °C 10.4 °C 1004.6 hPa NNW 6.4 km/h 11.3 km/h 84% 0 mm 302 W/m2
08:04 13.2 °C 10.4 °C 1004.6 hPa WNW 8 km/h 16.1 km/h 82.8% 0 mm 338 W/m2
08:09 13.2 °C 10.1 °C 1004.3 hPa NW 10.6 km/h 16.1 km/h 81.6% 0 mm 246 W/m2
08:14 13.2 °C 10.1 °C 1004.3 hPa WNW 9 km/h 14.5 km/h 81% 0 mm 218 W/m2
08:19 13.3 °C 10.1 °C 1004.3 hPa WNW 7.9 km/h 14.5 km/h 81% 0 mm 192 W/m2
08:24 13.2 °C 10.1 °C 1004.3 hPa WNW 9.5 km/h 16.1 km/h 81% 0 mm 151 W/m2
08:29 13.1 °C 9.8 °C 1004.3 hPa WNW 8.7 km/h 14.5 km/h 80.2% 0 mm 214 W/m2
08:34 13.2 °C 9.8 °C 1004.3 hPa WNW 8.9 km/h 16.1 km/h 80.3% 0 mm 262 W/m2
08:39 13.2 °C 10 °C 1004.3 hPa WNW 10 km/h 16.1 km/h 81% 0 mm 257 W/m2
08:44 13.2 °C 10.1 °C 1004.3 hPa WNW 6.4 km/h 12.9 km/h 81% 0 mm 214 W/m2
08:49 13.2 °C 10.1 °C 1004.3 hPa WNW 7.2 km/h 12.9 km/h 81% 0 mm 248 W/m2
08:53 13.3 °C 9.9 °C 1004.3 hPa West 6 km/h 11.3 km/h 80.3% 0 mm 195 W/m2
08:59 13.3 °C 9.8 °C 1004.3 hPa West 6.6 km/h 14.5 km/h 79.2% 0 mm 225 W/m2
09:04 13.2 °C 9.6 °C 1004.3 hPa WNW 5.3 km/h 14.5 km/h 79% 0 mm 241 W/m2
09:09 13.6 °C 10 °C 1003.9 hPa West 4.8 km/h 11.3 km/h 79% 0 mm 640 W/m2
09:14 14 °C 10 °C 1003.9 hPa West 6 km/h 11.3 km/h 77% 0 mm 499 W/m2
09:19 14.1 °C 9.8 °C 1003.9 hPa NW 8.7 km/h 14.5 km/h 76% 0 mm 547 W/m2
09:24 14 °C 9.7 °C 1003.9 hPa WNW 9.2 km/h 16.1 km/h 75.2% 0 mm 411 W/m2
09:29 14.1 °C 9.7 °C 1003.9 hPa NW 5.8 km/h 16.1 km/h 75% 0 mm 394 W/m2
09:34 14.1 °C 9.4 °C 1003.9 hPa WNW 11.6 km/h 16.1 km/h 74% 0 mm 369 W/m2
09:39 13.9 °C 9.4 °C 1003.9 hPa West 9.2 km/h 19.3 km/h 74.8% 0 mm 499 W/m2
09:44 14.1 °C 9.5 °C 1003.9 hPa West 8.2 km/h 12.9 km/h 74% 0 mm 276 W/m2
09:49 14.2 °C 9.8 °C 1003.9 hPa WNW 6.6 km/h 14.5 km/h 74.8% 0 mm 281 W/m2
09:54 14.2 °C 9.5 °C 1003.9 hPa West 9 km/h 17.7 km/h 73.6% 0 mm 399 W/m2
09:59 14.5 °C 9.8 °C 1003.6 hPa WNW 5.3 km/h 12.9 km/h 73.4% 0 mm 563 W/m2
10:04 14.6 °C 9.7 °C 1003.6 hPa NW 10.6 km/h 16.1 km/h 72.8% 0 mm 464 W/m2
10:09 14.4 °C 9.4 °C 1003.6 hPa West 11.3 km/h 17.7 km/h 72% 0 mm 540 W/m2
10:14 14.7 °C 9.7 °C 1003.6 hPa WNW 10.3 km/h 16.1 km/h 72% 0 mm 517 W/m2
10:19 14.7 °C 9.7 °C 1003.6 hPa West 11.6 km/h 17.7 km/h 72% 0 mm 512 W/m2
10:24 14.7 °C 9.7 °C 1003.6 hPa West 8.2 km/h 16.1 km/h 71.8% 0 mm 570 W/m2
10:29 14.8 °C 9.6 °C 1003.3 hPa WSW 8.7 km/h 17.7 km/h 71.2% 0 mm 311 W/m2
10:34 14.8 °C 9.6 °C 1003.3 hPa West 7.2 km/h 14.5 km/h 71% 0 mm 241 W/m2
10:39 14.7 °C 9.6 °C 1003.3 hPa West 8.5 km/h 14.5 km/h 71.4% 0 mm 250 W/m2
10:44 14.8 °C 9.8 °C 1003.3 hPa West 8.4 km/h 17.7 km/h 72% 0 mm 304 W/m2
10:49 14.7 °C 9.7 °C 1003.3 hPa WNW 6.9 km/h 17.7 km/h 72% 0 mm 308 W/m2
10:54 14.7 °C 9.7 °C 1003.3 hPa WNW 7.9 km/h 16.1 km/h 72% 0 mm 325 W/m2
10:59 14.8 °C 9.8 °C 1002.9 hPa WSW 8 km/h 16.1 km/h 72% 0 mm 306 W/m2
11:04 14.8 °C 9.8 °C 1002.9 hPa West 6.3 km/h 12.9 km/h 72.2% 0 mm 294 W/m2
11:09 14.8 °C 9.8 °C 1003.3 hPa West 9.5 km/h 19.3 km/h 72% 0 mm 279 W/m2
11:14 14.8 °C 9.8 °C 1002.9 hPa NW 9 km/h 17.7 km/h 72% 0 mm 297 W/m2
11:19 14.8 °C 9.8 °C 1002.9 hPa WNW 8.5 km/h 16.1 km/h 71.8% 0 mm 341 W/m2
11:24 14.8 °C 9.7 °C 1002.9 hPa WNW 11.1 km/h 17.7 km/h 71.4% 0 mm 308 W/m2
11:29 14.8 °C 9.8 °C 1002.9 hPa WNW 9.2 km/h 16.1 km/h 72% 0 mm 323 W/m2
11:34 14.8 °C 10 °C 1002.9 hPa West 7.6 km/h 22.5 km/h 73% 0 mm 364 W/m2
11:39 14.8 °C 10.2 °C 1002.9 hPa WNW 9.5 km/h 16.1 km/h 73.8% 0 mm 374 W/m2
11:44 14.9 °C 10.2 °C 1002.9 hPa WNW 10.8 km/h 20.9 km/h 73.4% 0 mm 501 W/m2
11:49 14.9 °C 10.3 °C 1002.9 hPa WNW 9.7 km/h 17.7 km/h 74% 0 mm 698 W/m2
11:54 15.1 °C 10.4 °C 1002.9 hPa WSW 12.4 km/h 20.9 km/h 73.5% 0 mm 492 W/m2
11:59 14.8 °C 10.2 °C 1002.9 hPa WSW 14.5 km/h 24.1 km/h 74% 0 mm 330 W/m2
12:04 14.9 °C 10.3 °C 1002.9 hPa West 9 km/h 19.3 km/h 74% 0 mm 397 W/m2
12:09 14.9 °C 10.2 °C 1002.9 hPa WNW 7.9 km/h 16.1 km/h 73.6% 0 mm 397 W/m2
12:14 15.1 °C 10.2 °C 1002.9 hPa West 10.6 km/h 20.9 km/h 72.6% 0 mm 325 W/m2
12:19 14.9 °C 9.9 °C 1002.9 hPa WNW 12.1 km/h 24.1 km/h 72% 0 mm 285 W/m2
12:24 14.8 °C 9.8 °C 1002.9 hPa WNW 11.7 km/h 22.5 km/h 72% 0 mm 290 W/m2
12:29 14.7 °C 9.7 °C 1002.9 hPa WNW 14.5 km/h 20.9 km/h 72% 0 mm 355 W/m2
12:34 14.6 °C 9.7 °C 1002.9 hPa WNW 13.2 km/h 24.1 km/h 72.2% 0 mm 339 W/m2
12:39 14.6 °C 9.8 °C 1002.9 hPa WNW 16.1 km/h 22.5 km/h 73% 0 mm 499 W/m2
12:44 14.7 °C 9.9 °C 1002.9 hPa West 11.9 km/h 22.5 km/h 73% 0 mm 450 W/m2
12:54 14.7 °C 10.2 °C 1002.9 hPa West 13.2 km/h 25.7 km/h 74% 0 mm 371 W/m2
12:59 14.6 °C 10 °C 1002.9 hPa WNW 12.2 km/h 25.7 km/h 74% 0 mm 454 W/m2
13:04 14.7 °C 10.1 °C 1002.9 hPa WNW 9.3 km/h 17.7 km/h 74% 0 mm 396 W/m2
13:09 14.8 °C 10.3 °C 1002.9 hPa West 6.1 km/h 19.3 km/h 74.8% 0 mm 360 W/m2
13:14 14.9 °C 10.4 °C 1002.9 hPa West 9.7 km/h 16.1 km/h 74.4% 0 mm 353 W/m2
13:19 14.9 °C 10.3 °C 1002.9 hPa West 7.9 km/h 16.1 km/h 74% 0 mm 404 W/m2
13:24 14.9 °C 10.3 °C 1002.9 hPa WNW 12.6 km/h 19.3 km/h 73.8% 0 mm 427 W/m2
13:29 14.8 °C 9.8 °C 1002.9 hPa West 13.2 km/h 20.9 km/h 72% 0 mm 536 W/m2
13:34 14.9 °C 9.9 °C 1002.9 hPa West 11.6 km/h 19.3 km/h 72% 0 mm 536 W/m2
13:39 14.8 °C 9.7 °C 1002.9 hPa WNW 9.2 km/h 19.3 km/h 71.4% 0 mm 487 W/m2
13:44 14.9 °C 9.9 °C 1002.6 hPa West 7.4 km/h 16.1 km/h 72% 0 mm 381 W/m2
13:49 14.9 °C 9.9 °C 1002.6 hPa WNW 10.3 km/h 17.7 km/h 72% 0 mm 371 W/m2
13:54 14.9 °C 9.9 °C 1002.6 hPa WNW 8.9 km/h 17.7 km/h 72% 0 mm 443 W/m2
13:59 15.2 °C 10 °C 1002.6 hPa West 7.6 km/h 16.1 km/h 71.2% 0 mm 483 W/m2
14:04 15.2 °C 9.8 °C 1002.6 hPa West 13.8 km/h 19.3 km/h 70% 0 mm 564 W/m2
14:09 15.1 °C 9.8 °C 1002.6 hPa WNW 10.5 km/h 19.3 km/h 70.6% 0 mm 548 W/m2
14:14 14.9 °C 9.7 °C 1002.3 hPa West 13.2 km/h 22.5 km/h 70.8% 0 mm 343 W/m2
14:19 15.2 °C 9.9 °C 1002.6 hPa West 11.6 km/h 19.3 km/h 71% 0 mm 336 W/m2
14:24 15.2 °C 10 °C 1002.3 hPa West 9 km/h 17.7 km/h 71% 0 mm 276 W/m2
14:29 14.9 °C 9.8 °C 1002.3 hPa WNW 14 km/h 20.9 km/h 71.4% 0 mm 241 W/m2
14:34 14.8 °C 9.7 °C 1002.3 hPa WSW 10.9 km/h 25.7 km/h 71.6% 0 mm 571 W/m2
14:39 15.1 °C 10.1 °C 1002.3 hPa West 14.5 km/h 19.3 km/h 72% 0 mm 612 W/m2
14:44 15.1 °C 9.9 °C 1002.3 hPa West 14.2 km/h 22.5 km/h 71.2% 0 mm 598 W/m2
14:49 15 °C 10.1 °C 1002.3 hPa WNW 10.9 km/h 19.3 km/h 72.6% 0 mm 626 W/m2
14:54 15.1 °C 10.6 °C 1002.3 hPa WNW 10.6 km/h 17.7 km/h 74.4% 0 mm 483 W/m2
14:59 14.8 °C 10.3 °C 1002.3 hPa WNW 9.2 km/h 20.9 km/h 75% 0 mm 388 W/m2
15:04 14.7 °C 10.2 °C 1001.9 hPa West 11.7 km/h 20.9 km/h 74.8% 0 mm 388 W/m2
15:09 14.8 °C 10.2 °C 1001.9 hPa West 9.3 km/h 19.3 km/h 73.8% 0 mm 329 W/m2
15:13 14.8 °C 10.1 °C 1001.9 hPa West 10.1 km/h 16.1 km/h 73.3% 0 mm 369 W/m2
15:19 14.9 °C 9.9 °C 1001.9 hPa West 11.4 km/h 17.7 km/h 72% 0 mm 383 W/m2
15:24 15.1 °C 9.7 °C 1001.9 hPa West 12.7 km/h 20.9 km/h 70.2% 0 mm 327 W/m2
15:29 15 °C 9.2 °C 1001.9 hPa WNW 10.5 km/h 20.9 km/h 68.4% 0 mm 308 W/m2
15:34 14.9 °C 9.3 °C 1001.9 hPa NW 15.9 km/h 20.9 km/h 69% 0 mm 350 W/m2
15:38 14.8 °C 9.3 °C 1001.9 hPa WNW 15.8 km/h 24.1 km/h 70% 0 mm 366 W/m2
15:44 14.9 °C 9.5 °C 1002.3 hPa WNW 10.9 km/h 22.5 km/h 70% 0 mm 640 W/m2
15:49 15.2 °C 9.7 °C 1001.9 hPa WNW 8.4 km/h 20.9 km/h 70% 0 mm 536 W/m2
15:54 15.3 °C 9.7 °C 1001.9 hPa WNW 12.4 km/h 25.7 km/h 69.5% 0 mm 371 W/m2
15:59 14.8 °C 9.2 °C 1002.3 hPa West 17.2 km/h 25.7 km/h 69% 0 mm 323 W/m2
16:04 14.8 °C 9.4 °C 1002.3 hPa West 11.6 km/h 24.1 km/h 70.2% 0 mm 285 W/m2
16:09 14.7 °C 9.6 °C 1001.9 hPa West 8.4 km/h 22.5 km/h 71.4% 0 mm 243 W/m2
16:14 14.6 °C 9.7 °C 1002.3 hPa West 9.3 km/h 19.3 km/h 72.2% 0 mm 220 W/m2
16:19 14.4 °C 9.6 °C 1002.3 hPa WNW 12.1 km/h 22.5 km/h 72.8% 0 mm 214 W/m2
16:24 14.3 °C 9.5 °C 1002.3 hPa WNW 12.6 km/h 22.5 km/h 73% 0 mm 216 W/m2
16:29 14.2 °C 9.6 °C 1002.3 hPa West 12.1 km/h 25.7 km/h 74% 0 mm 188 W/m2
16:34 14 °C 9.4 °C 1002.3 hPa West 15.9 km/h 25.7 km/h 74% 0 mm 186 W/m2
16:39 13.8 °C 9.2 °C 1002.3 hPa West 12.9 km/h 24.1 km/h 74% 0 mm 202 W/m2
16:44 13.8 °C 9.2 °C 1002.3 hPa WNW 11.9 km/h 17.7 km/h 74% 0 mm 225 W/m2
16:49 13.7 °C 9.1 °C 1002.3 hPa West 15.3 km/h 25.7 km/h 74% 0 mm 236 W/m2
16:54 13.7 °C 9.1 °C 1001.9 hPa WNW 7.2 km/h 17.7 km/h 74% 0 mm 234 W/m2
16:59 13.8 °C 9 °C 1002.3 hPa West 9.8 km/h 17.7 km/h 73% 0 mm 223 W/m2
17:04 13.8 °C 9 °C 1001.9 hPa West 10.1 km/h 22.5 km/h 73% 0 mm 229 W/m2
17:09 13.7 °C 8.9 °C 1001.9 hPa WNW 11.3 km/h 19.3 km/h 73% 0 mm 243 W/m2
17:14 13.7 °C 9 °C 1001.9 hPa WNW 8.5 km/h 19.3 km/h 73.6% 0 mm 243 W/m2
17:18 13.7 °C 9.1 °C 1001.9 hPa West 11.3 km/h 24.1 km/h 74% 0 mm 223 W/m2
17:24 13.7 °C 9.1 °C 1001.9 hPa West 8.2 km/h 19.3 km/h 74% 0 mm 236 W/m2
17:29 13.7 °C 9.1 °C 1001.9 hPa WNW 10 km/h 19.3 km/h 74% 0 mm 241 W/m2
17:34 13.7 °C 9.1 °C 1001.9 hPa West 10.9 km/h 19.3 km/h 74% 0 mm 257 W/m2
17:39 13.6 °C 9.1 °C 1001.9 hPa West 9.3 km/h 19.3 km/h 74% 0 mm 243 W/m2
17:44 13.7 °C 9.2 °C 1001.9 hPa West 7.2 km/h 19.3 km/h 74.4% 0 mm 218 W/m2
17:49 13.8 °C 9.3 °C 1001.9 hPa WSW 7.2 km/h 12.9 km/h 74.5% 0 mm 197 W/m2
17:54 13.8 °C 9.2 °C 1001.9 hPa WNW 11.6 km/h 19.3 km/h 74.2% 0 mm 190 W/m2
17:59 13.7 °C 9.2 °C 1001.9 hPa WNW 9 km/h 16.1 km/h 74% 0 mm 192 W/m2
18:04 13.8 °C 9.2 °C 1001.9 hPa West 9.2 km/h 14.5 km/h 74% 0 mm 190 W/m2
18:09 13.7 °C 9.2 °C 1001.9 hPa WNW 11.6 km/h 17.7 km/h 74% 0 mm 185 W/m2
18:14 13.6 °C 8.9 °C 1001.9 hPa WNW 10.3 km/h 22.5 km/h 73.2% 0 mm 206 W/m2
18:19 13.7 °C 8.9 °C 1001.9 hPa West 10.3 km/h 19.3 km/h 73% 0 mm 258 W/m2
18:24 13.5 °C 8.8 °C 1001.9 hPa West 8 km/h 19.3 km/h 73% 0 mm 243 W/m2
18:29 13.4 °C 8.9 °C 1001.9 hPa West 12.1 km/h 22.5 km/h 74% 0 mm 199 W/m2
18:34 13.4 °C 8.9 °C 1001.9 hPa WNW 9.3 km/h 22.5 km/h 74% 0 mm 171 W/m2
18:39 13.5 °C 9.1 °C 1001.9 hPa West 12.6 km/h 17.7 km/h 74.6% 0 mm 169 W/m2
18:44 13.4 °C 9.1 °C 1001.9 hPa WNW 9.5 km/h 17.7 km/h 75% 0 mm 163 W/m2
18:49 13.5 °C 9.2 °C 1001.9 hPa West 7.7 km/h 14.5 km/h 75% 0 mm 121 W/m2
18:54 13.5 °C 9.3 °C 1001.9 hPa West 10 km/h 19.3 km/h 75.5% 0 mm 102 W/m2
18:59 13.6 °C 9.4 °C 1001.9 hPa WSW 8 km/h 19.3 km/h 76% 0 mm 139 W/m2
19:09 13.6 °C 9.4 °C 1001.9 hPa WNW 10.6 km/h 17.7 km/h 76% 0 mm 127 W/m2
19:14 13.4 °C 9.4 °C 1001.9 hPa WNW 9 km/h 16.1 km/h 76.6% 0 mm 165 W/m2
19:19 13.5 °C 9.4 °C 1001.9 hPa West 7.7 km/h 16.1 km/h 76.4% 0 mm 118 W/m2
19:24 13.3 °C 9.3 °C 1001.9 hPa West 9.7 km/h 16.1 km/h 76% 0 mm 118 W/m2
19:29 13.2 °C 9.2 °C 1001.9 hPa West 9.7 km/h 17.7 km/h 76.6% 0 mm 120 W/m2
19:34 13.2 °C 9.2 °C 1001.9 hPa West 9.2 km/h 16.1 km/h 77% 0 mm 102 W/m2
19:39 13.1 °C 9.2 °C 1001.9 hPa WNW 9.7 km/h 19.3 km/h 77% 0 mm 97 W/m2
19:44 13.1 °C 9.2 °C 1001.9 hPa West 8.4 km/h 19.3 km/h 77% 0 mm 91 W/m2
19:49 12.9 °C 9.2 °C 1001.9 hPa West 11.1 km/h 19.3 km/h 77.8% 0 mm 104 W/m2
19:54 12.8 °C 9.1 °C 1001.9 hPa West 10.6 km/h 20.9 km/h 78% 0 mm 104 W/m2
19:59 12.8 °C 9.1 °C 1001.9 hPa West 10.8 km/h 20.9 km/h 78% 0 mm 77 W/m2
20:04 12.8 °C 9.1 °C 1001.9 hPa West 10.5 km/h 20.9 km/h 78.2% 0 mm 49 W/m2
20:09 12.7 °C 9.2 °C 1001.9 hPa WNW 12.9 km/h 19.3 km/h 79% 0 mm 18 W/m2
20:14 12.5 °C 9.1 °C 1001.9 hPa West 14.8 km/h 25.7 km/h 79.6% 0 mm 12 W/m2
20:19 12.4 °C 9 °C 1001.9 hPa WNW 10.9 km/h 25.7 km/h 80% 0 mm 11 W/m2
20:24 12.2 °C 8.9 °C 1002.3 hPa NNW 9 km/h 20.9 km/h 80.2% 0 mm 5 W/m2
20:29 11.7 °C 7.9 °C 1002.3 hPa NNW 9.7 km/h 22.5 km/h 77.6% 0 mm 0 W/m2
20:34 11.3 °C 7.4 °C 1002.3 hPa NW 8.7 km/h 17.7 km/h 77.2% 0 mm 0 W/m2
20:44 10.6 °C 7.6 °C 1002.6 hPa NW 9.5 km/h 19.3 km/h 81.2% 0.25 mm 0 W/m2
20:49 10.4 °C 7.6 °C 1002.6 hPa NNW 10.6 km/h 17.7 km/h 82.4% 0.51 mm 0 W/m2
20:54 10.2 °C 7.4 °C 1002.3 hPa NW 5.8 km/h 12.9 km/h 83.4% 0.51 mm 0 W/m2
20:59 9.9 °C 7.4 °C 1002.6 hPa WNW 4.8 km/h 9.7 km/h 84.6% 1.27 mm 0 W/m2
21:04 9.8 °C 7.6 °C 1002.6 hPa NW 2.7 km/h 8 km/h 85.8% 2.29 mm 0 W/m2
21:09 9.7 °C 7.6 °C 1002.6 hPa NW 1.6 km/h 6.4 km/h 86% 3.05 mm 0 W/m2
21:14 9.8 °C 7.7 °C 1002.6 hPa NW 1.3 km/h 4.8 km/h 87% 3.3 mm 0 W/m2
21:19 9.8 °C 7.8 °C 1002.6 hPa NW 2.6 km/h 6.4 km/h 87.2% 4.83 mm 0 W/m2
21:24 9.7 °C 7.8 °C 1002.6 hPa NW 1.6 km/h 4.8 km/h 88% 6.1 mm 0 W/m2
21:29 9.7 °C 7.9 °C 1002.9 hPa NW 3.2 km/h 8 km/h 88.5% 6.86 mm 0 W/m2
21:34 9.6 °C 7.9 °C 1002.9 hPa WNW 6 km/h 11.3 km/h 89% 7.11 mm 0 W/m2
21:39 9.5 °C 7.9 °C 1002.9 hPa NW 8.4 km/h 16.1 km/h 89.6% 7.37 mm 0 W/m2
21:44 9.6 °C 8 °C 1002.9 hPa West 5.3 km/h 9.7 km/h 90% 7.62 mm 0 W/m2
21:49 9.6 °C 8.1 °C 1002.9 hPa WNW 7.2 km/h 17.7 km/h 90.4% 7.87 mm 0 W/m2
21:54 9.5 °C 8 °C 1002.9 hPa WNW 8.4 km/h 17.7 km/h 90.4% 7.87 mm 0 W/m2
21:59 9.4 °C 8 °C 1002.9 hPa WNW 4.2 km/h 11.3 km/h 91% 7.87 mm 0 W/m2
22:04 9.4 °C 8 °C 1002.9 hPa WNW 0.8 km/h 8 km/h 91% 7.62 mm 0 W/m2
22:09 9.3 °C 7.9 °C 1002.9 hPa WNW 3.2 km/h 4.8 km/h 91% 6.1 mm 0 W/m2
22:14 9.3 °C 7.9 °C 1002.9 hPa WNW 2.3 km/h 6.4 km/h 91% 5.84 mm 0 W/m2
22:19 9.3 °C 8 °C 1002.9 hPa WNW 2.4 km/h 4.8 km/h 91.5% 5.33 mm 0 W/m2
22:24 9.3 °C 8.1 °C 1002.9 hPa WNW 1.9 km/h 4.8 km/h 92% 4.32 mm 0 W/m2
22:29 9.3 °C 8.1 °C 1002.9 hPa WNW 3.2 km/h 6.4 km/h 92% 2.79 mm 0 W/m2
22:34 9.3 °C 8.1 °C 1002.9 hPa WNW 3.9 km/h 6.4 km/h 92% 2.03 mm 0 W/m2
22:39 9.3 °C 8.1 °C 1002.9 hPa WNW 3.2 km/h 4.8 km/h 92% 1.52 mm 0 W/m2
22:44 9.3 °C 8.1 °C 1002.9 hPa WNW 0.6 km/h 4.8 km/h 92% 1.52 mm 0 W/m2
22:49 9.3 °C 8.1 °C 1002.9 hPa Calm   1.6 km/h 92% 1.27 mm 0 W/m2
22:54 9.4 °C 8.2 °C 1002.9 hPa Calm   1.6 km/h 92% 0.76 mm 0 W/m2
22:59 9.4 °C 8.3 °C 1002.9 hPa Calm     92.8% 0.51 mm 0 W/m2
23:04 9.4 °C 8.3 °C 1002.9 hPa Calm   1.6 km/h 92.6% 0.25 mm 0 W/m2
23:09 9.4 °C 8.3 °C 1002.9 hPa Calm     93% 0.25 mm 0 W/m2
23:19 9.6 °C 8.5 °C 1002.9 hPa Calm   1.6 km/h 93% 0 mm 0 W/m2
23:24 9.6 °C 8.5 °C 1002.9 hPa WNW 0.3 km/h 1.6 km/h 93% 0 mm 0 W/m2
23:29 9.7 °C 8.6 °C 1002.9 hPa WNW 0.8 km/h 3.2 km/h 93% 0 mm 0 W/m2
23:34 9.7 °C 8.6 °C 1002.9 hPa Calm   1.6 km/h 93% 0 mm 0 W/m2
23:39 9.6 °C 8.5 °C 1002.9 hPa Calm     93% 0 mm 0 W/m2
23:44 9.6 °C 8.5 °C 1002.9 hPa WNW 2.1 km/h 3.2 km/h 93% 0 mm 0 W/m2
23:48 9.6 °C 8.5 °C 1002.9 hPa WNW 0.8 km/h 3.2 km/h 93% 0 mm 0 W/m2
23:54 9.5 °C 8.4 °C 1002.9 hPa Calm   1.6 km/h 93% 0 mm 0 W/m2
23:59 9.5 °C 8.4 °C 1002.9 hPa Calm   1.6 km/h 93% 0 mm 0 W/m2
Bath Spa Weather
Compliments of Weather Underground - 2 mb